PWSweather.com
Personal Weather Stations
Station Observations
IMAZOWIE6
WarszawaPL

WarszawaPL

Lat: 52.27957, Lon: 21.05489

Elevation: 100

Station Type: WS1080

http://stacjapogody.waw.pl/

Latest ConditionsUpdated 5:19:08 AM GMT+01:01 Tuesday, Oct 23, 2018
Currently Today's Max Today's Min Today's Average
Temperature 41.5°F5.3°C 45.5°F7.5°C 41.5°F5.3°C 43.7°F6.5°C
Dew Point -168.6°F-111.4°C -168.3°F-111.3°C -168.6°F-111.4°C -168.4°F-111.3°C
Winds Calm Calm Calm -Calm - - Calm Calm
Wind Gusts -- 1.4 mph2.3 kmh - -
Humidity - - - -
Pressure 29.66 in1004.4 mb 29.77 in1008.1 mb 29.66 in1004.4 mb -
Hour Temp Dew Point Humidity Winds Wind Gusts Pressure Precip Precip Rate Daily Precip Total
05:19 AM 41.5°F5.3°C -168.6°F-111.4°C - Calm Calm -- 29.66 in1004.4 mb 0.00 in0.0 mm 0.00 in0.0 mm 0.00 in0.0 mm
05:04 AM 41.5°F5.3°C -168.6°F-111.4°C - Calm Calm -- 29.67 in1004.7 mb 0.00 in0.0 mm 0.00 in0.0 mm 0.00 in0.0 mm
04:49 AM 41.7°F5.4°C -168.6°F-111.4°C - Calm Calm 0.6 mph1.0 kmh 29.68 in1005.1 mb 0.00 in0.0 mm 0.00 in0.0 mm 0.00 in0.0 mm
04:34 AM 42.1°F5.6°C -168.6°F-111.4°C - Calm Calm -- 29.68 in1005.1 mb 0.00 in0.0 mm 0.00 in0.0 mm 0.00 in0.0 mm
04:19 AM 42.3°F5.7°C -168.6°F-111.4°C - Calm Calm 0.6 mph1.0 kmh 29.70 in1005.8 mb 0.00 in0.0 mm 0.00 in0.0 mm 0.00 in0.0 mm
04:04 AM 42.8°F6.0°C -168.5°F-111.4°C - Calm Calm -- 29.70 in1005.8 mb 0.00 in0.0 mm 0.00 in0.0 mm 0.00 in0.0 mm
03:49 AM 43.3°F6.3°C -168.5°F-111.4°C - Calm Calm 0.6 mph1.0 kmh 29.71 in1006.1 mb 0.00 in0.0 mm 0.00 in0.0 mm 0.00 in0.0 mm
03:34 AM 43.3°F6.3°C -168.5°F-111.4°C - Calm Calm -- 29.71 in1006.1 mb 0.00 in0.0 mm 0.00 in0.0 mm 0.00 in0.0 mm
03:19 AM 43.7°F6.5°C -168.4°F-111.3°C - Calm Calm -- 29.71 in1006.1 mb 0.00 in0.0 mm 0.00 in0.0 mm 0.00 in0.0 mm
03:04 AM 44.1°F6.7°C -168.4°F-111.3°C - Calm Calm 1.4 mph2.3 kmh 29.72 in1006.4 mb 0.00 in0.0 mm 0.00 in0.0 mm 0.00 in0.0 mm
02:49 AM 44.2°F6.8°C -168.4°F-111.3°C - Calm Calm -- 29.73 in1006.8 mb 0.00 in0.0 mm 0.00 in0.0 mm 0.00 in0.0 mm
02:34 AM 44.6°F7.0°C -168.3°F-111.3°C - Calm Calm 0.6 mph1.0 kmh 29.73 in1006.8 mb 0.00 in0.0 mm 0.00 in0.0 mm 0.00 in0.0 mm
02:19 AM 44.4°F6.9°C -168.4°F-111.3°C - Calm Calm -- 29.73 in1006.8 mb 0.00 in0.0 mm 0.00 in0.0 mm 0.00 in0.0 mm
02:04 AM 44.2°F6.8°C -168.4°F-111.3°C - Calm Calm -- 29.74 in1007.1 mb 0.00 in0.0 mm 0.00 in0.0 mm 0.00 in0.0 mm
01:49 AM 44.2°F6.8°C -168.4°F-111.3°C - Calm Calm 0.6 mph1.0 kmh 29.74 in1007.1 mb 0.00 in0.0 mm 0.00 in0.0 mm 0.00 in0.0 mm
01:34 AM 44.1°F6.7°C -168.4°F-111.3°C - Calm Calm -- 29.75 in1007.5 mb 0.00 in0.0 mm 0.00 in0.0 mm 0.00 in0.0 mm
01:19 AM 44.2°F6.8°C -168.4°F-111.3°C - Calm Calm -- 29.75 in1007.5 mb 0.00 in0.0 mm 0.00 in0.0 mm 0.00 in0.0 mm
01:04 AM 44.8°F7.1°C -168.3°F-111.3°C - Calm Calm -- 29.75 in1007.5 mb 0.00 in0.0 mm 0.00 in0.0 mm 0.00 in0.0 mm
12:49 AM 44.8°F7.1°C -168.3°F-111.3°C - Calm Calm -- 29.76 in1007.8 mb 0.00 in0.0 mm 0.00 in0.0 mm 0.00 in0.0 mm
12:34 AM 44.8°F7.1°C -168.3°F-111.3°C - Calm Calm -- 29.76 in1007.8 mb 0.00 in0.0 mm 0.00 in0.0 mm 0.00 in0.0 mm
12:19 AM 45.1°F7.3°C -168.3°F-111.3°C - Calm Calm -- 29.76 in1007.8 mb 0.00 in0.0 mm 0.00 in0.0 mm 0.00 in0.0 mm
12:04 AM 45.5°F7.5°C -168.3°F-111.3°C - Calm Calm -- 29.77 in1008.1 mb 0.00 in0.0 mm 0.00 in0.0 mm 0.00 in0.0 mm